ヌーク の空港の天気 - METARとTAF

ヌーク空港 ( BGGH / GOH ) - グリーンランド ヌーク
飛行場実況気象(Metar)
観測時間04/26 14:50 WGST (04/26 16:50 UTC)
風向・風速北東 6m/s
視程10km以上
天気現象
全天の8割程度の雲 雲底高度 5180m
気温-1℃
湿度59%
気圧1008hPa
METARBGGH 261650Z 04012KT 9999 BKN170 M01/M08 Q1008
過去の天気等 Google飛行場航空写真 Wunderground天気予報

過去48時間のMETAR

飛行場予報(TAF)
発表時間: 4/26 12:04 WGST (4/26 14:04 UTC)
予報対象時間: 26日13時 WGST ~ 26日20時 WGST
風向・風速北東 5m/s
視程10km以上
全天の4割程度の雲 雲底高度 5490m
TAF BGGH 261404Z 2615/2622 05010KT 9999 SCT180